Terminal Aerodrome Forecast
Issued by NWS

Home | Current Version | Previous Version | Text Only | Print | Product List | Glossary On
Versions: 1 2 3 4 5 6 7 8 9 10 11 12 13 14
115
FTUS43 KGRR 202322
TAFBTL
TAF
KBTL 202322Z 2100/2124 14012KT P6SM OVC200
     FM210300 15010KT P6SM OVC020 WS020/21035KT
     FM211100 18009KT 2SM -SHRA BR OVC010
     FM211400 22007KT 1SM SHRA BR OVC003
     FM211600 22005KT P6SM BKN025
     FM212000 28005KT P6SM BKN045=

USA.gov is the U.S. government's official web portal to all federal, state and local government web resources and services.